Pep, NM

8:29 PM MST on January 29, 2015 (GMT -0700)
APRSWXNET Milnesand NM US | Change Station
CLOSE
Current Station
Personal Weather Station
Location: Milnesand, NM
Elevation: 4117 ft
Nearby Weather Stations

Elev 4117 ft 33.65 °N, 103.27 °W | Updated 35 minutes ago

Overcast
Overcast
43 °F
Feels Like 43 °F
N
0
Wind Variable Wind from NE
Gusts 0.0 mph

Today
High -- | Low -- °F
--% Chance of Precip.
Yesterday
High -- | Low -- °F
Precip. -- in
6:52 AM 5:21 PM
Waxing Gibbous, 79% visible
Pressure 30.49 in
Visibility 10.0 miles
Clouds Scattered Clouds 12000 ft
Mostly Cloudy 14000 ft
Windchill 43 °F
Dew Point 27 °F
Humidity 52%
Rainfall 0.00 in
Snow Depth Not available.
UV 0 out of 12
Pollen 6.10 out of 12
Air Quality Not available.
Flu Activity Not available.
METAR KCVS 300258Z AUTO 05004KT 10SM SCT120 BKN140 04/M02 A3049 RMK AO2 SLP325 T00391023 53004 VISNO RWY22

More Conditions Fewer Conditions

Pressure 30.49 in
Visibility 10.0 miles
Clouds Scattered Clouds 12000 ft
Mostly Cloudy 14000 ft
Windchill 43 °F
Dew Point 27 °F
Humidity 52%
Rainfall 0.00 in
Snow Depth Not available.
UV 0 out of 12
Pollen 6.10 out of 12
Air Quality Not available.
Flu Activity Not available.
METAR KCVS 300258Z AUTO 05004KT 10SM SCT120 BKN140 04/M02 A3049 RMK AO2 SLP325 T00391023 53004 VISNO RWY22

More Conditions Fewer Conditions

10-Day Weather Forecast

Almanac

Astronomy

Jan. 29, 2015 Rise Set
Actual Time
Civil Twilight
Nautical Twilight
Astronomical Twilight
Moon
Length of Visible Light
Length of Day
Tomorrow will be .
, % of the Moon is Illuminated

Today's Extremes

State Highs State Lows

Community

WunderPhotos

Upload Photos

1,791,702 photos uploaded!

WunderBlogs® & News

Nearby

Air Quality

  Air Quality AQ Index Pollutant
Not available.

Snow Depth

Station Depth Elevation

Earthquake Activity

City Distance Mag. Time & Date
Minimum magnitude displayed is 2.5.

Coastal Water Temperatures

Place Temperature

Nearby Weather Stations